Nyk Olympus — 3EOS7 — position and weather

sailwx.info

Track history (hours):
 
Tides and Currents Weather Stations Pressure Air Temp Water Temp Dewpoint Dewpoint Depression Visibility Wind Speed Wind Dir Waves Ship Positions

Nyk Olympus

Last reported at 2015-May-27 01:29 UTC. Time now 2015-May-27 01:46 UTC.
Position N 35°36' E 139°46'.

Length 335 m; draft 11.9 m.

Type: Other ship. MMSI: 372478000.

Date/timePositionNaut miles runAvg speedWind from/ knotsBaromVisibWave heightAir tempDewpointWater temp
2015-May-27 01:29N 35°36' E 139°46'0 0.0
2015-May-27 00:32N 35°36' E 139°46'3 2.6
2015-May-26 23:33N 35°34' E 139°49'9 8.6
2015-May-26 22:33N 35°26' E 139°48'9 9.3
2015-May-26 21:33N 35°16' E 139°46'7 7.3
2015-May-26 20:33N 35°09' E 139°46'1312.6
2015-May-26 19:34N 34°58' E 139°40'1717.1
2015-May-26 18:33N 34°42' E 139°32'1615.8
2015-May-26 17:33N 34°34' E 139°15'46 3.0
2015-May-26 02:20N 35°02' E 138°31'0 0.0
2015-May-26 01:32N 35°02' E 138°31'0 0.0
2015-May-26 00:32N 35°02' E 138°31'0 0.0
2015-May-25 22:26N 35°02' E 138°31'0 0.1
2015-May-25 21:33N 35°02' E 138°31'8 6.3
2015-May-25 20:17N 34°54' E 138°31'182 3.8
2015-May-23 20:21N 34°10' E 134°57'1114.3
2015-May-23 19:33N 34°21' E 134°60'1717.6
2015-May-23 18:33N 34°34' E 135°14'8 7.8
2015-May-23 17:33N 34°41' E 135°18'0 0.2
2015-May-23 16:31N 34°41' E 135°17'0 0.0
2015-May-23 15:28N 34°41' E 135°17'0 0.0
2015-May-23 14:22N 34°41' E 135°17'0 0.0
2015-May-23 13:22N 34°41' E 135°17'0 0.0
2015-May-23 12:28N 34°41' E 135°17'0 0.0
2015-May-23 11:28N 34°41' E 135°17'0 0.0
2015-May-23 10:28N 34°41' E 135°17'0 0.0
2015-May-23 09:22N 34°41' E 135°17'0 0.0
2015-May-23 08:28N 34°41' E 135°17'0 0.0
2015-May-23 07:22N 34°41' E 135°17'0 0.0
2015-May-23 06:28N 34°41' E 135°17'0 0.0
2015-May-23 05:28N 34°41' E 135°17'0 0.0
2015-May-23 04:16N 34°41' E 135°17'0 0.0
2015-May-23 03:28N 34°41' E 135°17'0 0.0
2015-May-23 02:28N 34°41' E 135°17'0 0.0
2015-May-23 01:28N 34°41' E 135°17'0 0.0
2015-May-23 00:28N 34°41' E 135°17'0 0.0
2015-May-22 23:28N 34°41' E 135°17'1 1.2
2015-May-22 22:33N 34°40' E 135°18'9 9.1
2015-May-22 21:33N 34°32' E 135°13'1515.5
2015-May-22 20:33N 34°20' E 135°02'1211.8
2015-May-22 19:33N 34°09' E 134°58'1211.3
2015-May-22 18:32N 33°57' E 134°54'1110.9
2015-May-22 17:30N 33°46' E 134°57'  
2015-May-19 17:22N 23°57' E 118°28'1314.2
2015-May-19 16:28N 23°50' E 118°16'1514.7
2015-May-19 15:28N 23°43' E 118°02'3215.8
2015-May-19 13:27N 23°24' E 117°35'4515.0
2015-May-19 10:26N 22°50' E 117°02'16513.7
2015-May-18 22:27N 22°14' E 114°09'6 6.9
2015-May-18 21:33N 22°20' E 114°07'1 0.5
2015-May-18 20:32N 22°20' E 114°08'0 0.0
2015-May-18 19:32N 22°20' E 114°08'0 0.0
2015-May-18 18:31N 22°20' E 114°08'0 0.0
2015-May-18 17:31N 22°20' E 114°08'0 0.0
2015-May-18 16:32N 22°20' E 114°08'0 0.0
2015-May-18 15:32N 22°20' E 114°08'0 0.0
2015-May-18 14:31N 22°20' E 114°08'0 0.0
2015-May-18 13:32N 22°20' E 114°08'0 0.0
2015-May-18 12:31N 22°20' E 114°08'0 0.0
2015-May-18 11:31N 22°20' E 114°08'0 0.0
2015-May-18 10:28N 22°20' E 114°08'0 0.0
2015-May-18 09:31N 22°20' E 114°08'0 0.2
2015-May-18 08:33N 22°20' E 114°07'7 5.8
2015-May-18 07:17N 22°13' E 114°10'5 7.1
2015-May-18 06:32N 22°09' E 114°14'9 9.6
2015-May-18 05:33N 22°06' E 114°24'1110.7
2015-May-18 04:33N 21°55' E 114°24'1312.7
2015-May-18 03:32N 21°43' E 114°20'  
Track history (hours):
 
Tides and Currents Weather Stations Pressure Air Temp Water Temp Dewpoint Dewpoint Depression Visibility Wind Speed Wind Dir Waves Ship Positions

Nyk Olympus

Last reported at 2015-May-27 01:29 UTC. Time now 2015-May-27 01:46 UTC.
Position N 35°36' E 139°46'.

Length 335 m; draft 11.9 m.

Type: Other ship. MMSI: 372478000.

Date/timePositionNaut miles runAvg speedWind from/ knotsBaromVisibWave heightAir tempDewpointWater temp
2015-May-27 01:29N 35°36' E 139°46'0 0.0
2015-May-27 00:32N 35°36' E 139°46'3 2.6
2015-May-26 23:33N 35°34' E 139°49'9 8.6
2015-May-26 22:33N 35°26' E 139°48'9 9.3
2015-May-26 21:33N 35°16' E 139°46'7 7.3
2015-May-26 20:33N 35°09' E 139°46'1312.6
2015-May-26 19:34N 34°58' E 139°40'1717.1
2015-May-26 18:33N 34°42' E 139°32'1615.8
2015-May-26 17:33N 34°34' E 139°15'46 3.0
2015-May-26 02:20N 35°02' E 138°31'0 0.0
2015-May-26 01:32N 35°02' E 138°31'0 0.0
2015-May-26 00:32N 35°02' E 138°31'0 0.0
2015-May-25 22:26N 35°02' E 138°31'0 0.1
2015-May-25 21:33N 35°02' E 138°31'8 6.3
2015-May-25 20:17N 34°54' E 138°31'182 3.8
2015-May-23 20:21N 34°10' E 134°57'1114.3
2015-May-23 19:33N 34°21' E 134°60'1717.6
2015-May-23 18:33N 34°34' E 135°14'8 7.8
2015-May-23 17:33N 34°41' E 135°18'0 0.2
2015-May-23 16:31N 34°41' E 135°17'0 0.0
2015-May-23 15:28N 34°41' E 135°17'0 0.0
2015-May-23 14:22N 34°41' E 135°17'0 0.0
2015-May-23 13:22N 34°41' E 135°17'0 0.0
2015-May-23 12:28N 34°41' E 135°17'0 0.0
2015-May-23 11:28N 34°41' E 135°17'0 0.0
2015-May-23 10:28N 34°41' E 135°17'0 0.0
2015-May-23 09:22N 34°41' E 135°17'0 0.0
2015-May-23 08:28N 34°41' E 135°17'0 0.0
2015-May-23 07:22N 34°41' E 135°17'0 0.0
2015-May-23 06:28N 34°41' E 135°17'0 0.0
2015-May-23 05:28N 34°41' E 135°17'0 0.0
2015-May-23 04:16N 34°41' E 135°17'0 0.0
2015-May-23 03:28N 34°41' E 135°17'0 0.0
2015-May-23 02:28N 34°41' E 135°17'0 0.0
2015-May-23 01:28N 34°41' E 135°17'0 0.0
2015-May-23 00:28N 34°41' E 135°17'0 0.0
2015-May-22 23:28N 34°41' E 135°17'1 1.2
2015-May-22 22:33N 34°40' E 135°18'9 9.1
2015-May-22 21:33N 34°32' E 135°13'1515.5
2015-May-22 20:33N 34°20' E 135°02'1211.8
2015-May-22 19:33N 34°09' E 134°58'1211.3
2015-May-22 18:32N 33°57' E 134°54'1110.9
2015-May-22 17:30N 33°46' E 134°57'  
2015-May-19 17:22N 23°57' E 118°28'1314.2
2015-May-19 16:28N 23°50' E 118°16'1514.7
2015-May-19 15:28N 23°43' E 118°02'3215.8
2015-May-19 13:27N 23°24' E 117°35'4515.0
2015-May-19 10:26N 22°50' E 117°02'16513.7
2015-May-18 22:27N 22°14' E 114°09'6 6.9
2015-May-18 21:33N 22°20' E 114°07'1 0.5
2015-May-18 20:32N 22°20' E 114°08'0 0.0
2015-May-18 19:32N 22°20' E 114°08'0 0.0
2015-May-18 18:31N 22°20' E 114°08'0 0.0
2015-May-18 17:31N 22°20' E 114°08'0 0.0
2015-May-18 16:32N 22°20' E 114°08'0 0.0
2015-May-18 15:32N 22°20' E 114°08'0 0.0
2015-May-18 14:31N 22°20' E 114°08'0 0.0
2015-May-18 13:32N 22°20' E 114°08'0 0.0
2015-May-18 12:31N 22°20' E 114°08'0 0.0
2015-May-18 11:31N 22°20' E 114°08'0 0.0
2015-May-18 10:28N 22°20' E 114°08'0 0.0
2015-May-18 09:31N 22°20' E 114°08'0 0.2
2015-May-18 08:33N 22°20' E 114°07'7 5.8
2015-May-18 07:17N 22°13' E 114°10'5 7.1
2015-May-18 06:32N 22°09' E 114°14'9 9.6
2015-May-18 05:33N 22°06' E 114°24'1110.7
2015-May-18 04:33N 21°55' E 114°24'1312.7
2015-May-18 03:32N 21°43' E 114°20'  

Dump ship's entire track history